sensor_id;sensor_type;location;lat;lon;timestamp;pressure;altitude;pressure_sealevel;temperature;humidity
44457;BME280;30159;49.316;8.558;2023-10-08T00:01:03;101196.63;;;17.87;84.15
44457;BME280;30159;49.316;8.558;2023-10-08T00:03:31;101192.91;;;17.83;84.61
44457;BME280;30159;49.316;8.558;2023-10-08T00:05:58;101176.44;;;17.75;84.44
44457;BME280;30159;49.316;8.558;2023-10-08T00:08:31;101184.91;;;17.73;85.12
44457;BME280;30159;49.316;8.558;2023-10-08T00:10:58;101197.47;;;17.74;84.46
44457;BME280;30159;49.316;8.558;2023-10-08T00:13:33;101199.56;;;17.77;84.64
44457;BME280;30159;49.316;8.558;2023-10-08T00:16:05;101198.25;;;17.75;84.31
44457;BME280;30159;49.316;8.558;2023-10-08T00:18:35;101156.59;;;17.46;84.82
44457;BME280;30159;49.316;8.558;2023-10-08T00:21:02;101204.00;;;17.73;84.21
44457;BME280;30159;49.316;8.558;2023-10-08T00:23:41;101196.94;;;17.72;84.46
44457;BME280;30159;49.316;8.558;2023-10-08T00:26:14;101195.56;;;17.61;84.99
44457;BME280;30159;49.316;8.558;2023-10-08T00:28:45;101128.38;;;17.15;85.25
44457;BME280;30159;49.316;8.558;2023-10-08T00:31:13;101198.41;;;17.56;85.69
44457;BME280;30159;49.316;8.558;2023-10-08T00:33:43;101183.47;;;17.53;86.20
44457;BME280;30159;49.316;8.558;2023-10-08T00:36:10;101165.38;;;17.43;86.18
44457;BME280;30159;49.316;8.558;2023-10-08T00:38:44;101215.38;;;17.53;86.13
44457;BME280;30159;49.316;8.558;2023-10-08T00:41:15;101194.78;;;17.46;87.07
44457;BME280;30159;49.316;8.558;2023-10-08T00:43:42;101193.78;;;17.42;86.63
44457;BME280;30159;49.316;8.558;2023-10-08T00:46:11;101200.25;;;17.46;86.94
44457;BME280;30159;49.316;8.558;2023-10-08T00:48:47;101200.38;;;17.41;87.41
44457;BME280;30159;49.316;8.558;2023-10-08T00:51:14;101198.34;;;17.33;87.59
44457;BME280;30159;49.316;8.558;2023-10-08T00:53:54;101206.00;;;17.31;87.73
44457;BME280;30159;49.316;8.558;2023-10-08T00:56:24;101173.94;;;17.14;87.56
44457;BME280;30159;49.316;8.558;2023-10-08T00:58:51;101203.41;;;17.26;88.59
44457;BME280;30159;49.316;8.558;2023-10-08T01:01:20;101204.81;;;17.23;88.89
44457;BME280;30159;49.316;8.558;2023-10-08T01:03:47;101197.97;;;17.12;89.52
44457;BME280;30159;49.316;8.558;2023-10-08T01:06:16;101192.91;;;17.05;89.77
44457;BME280;30159;49.316;8.558;2023-10-08T01:08:46;101192.91;;;17.05;89.92
44457;BME280;30159;49.316;8.558;2023-10-08T01:11:18;101200.28;;;17.05;90.03
44457;BME280;30159;49.316;8.558;2023-10-08T01:13:47;101198.56;;;16.95;90.36
44457;BME280;30159;49.316;8.558;2023-10-08T01:16:14;101197.78;;;16.95;91.03
44457;BME280;30159;49.316;8.558;2023-10-08T01:18:44;101205.84;;;16.86;91.31
44457;BME280;30159;49.316;8.558;2023-10-08T01:21:17;101204.19;;;16.85;91.31
44457;BME280;30159;49.316;8.558;2023-10-08T01:24:00;101195.31;;;16.79;92.11
44457;BME280;30159;49.316;8.558;2023-10-08T01:26:31;101206.44;;;16.83;92.01
44457;BME280;30159;49.316;8.558;2023-10-08T01:28:59;101205.19;;;16.75;91.78
44457;BME280;30159;49.316;8.558;2023-10-08T01:31:29;101206.06;;;16.71;92.60
44457;BME280;30159;49.316;8.558;2023-10-08T01:33:57;101202.94;;;16.63;93.40
44457;BME280;30159;49.316;8.558;2023-10-08T01:36:24;101197.50;;;16.63;92.97
44457;BME280;30159;49.316;8.558;2023-10-08T01:38:51;101204.56;;;16.64;93.26
44457;BME280;30159;49.316;8.558;2023-10-08T01:41:21;101198.72;;;16.57;93.47
44457;BME280;30159;49.316;8.558;2023-10-08T01:43:55;101190.19;;;16.45;94.08
44457;BME280;30159;49.316;8.558;2023-10-08T01:46:23;101205.94;;;16.48;94.15
44457;BME280;30159;49.316;8.558;2023-10-08T01:48:55;101192.81;;;16.36;94.78
44457;BME280;30159;49.316;8.558;2023-10-08T01:51:29;101209.72;;;16.33;95.88
44457;BME280;30159;49.316;8.558;2023-10-08T01:54:03;101210.63;;;16.29;95.91
44457;BME280;30159;49.316;8.558;2023-10-08T01:56:37;101179.56;;;15.97;96.34
44457;BME280;30159;49.316;8.558;2023-10-08T01:59:07;101208.06;;;16.18;96.75
44457;BME280;30159;49.316;8.558;2023-10-08T02:01:34;101210.88;;;16.13;96.76
44457;BME280;30159;49.316;8.558;2023-10-08T02:04:00;101207.84;;;16.15;96.91
44457;BME280;30159;49.316;8.558;2023-10-08T02:06:27;101206.00;;;16.10;97.50
44457;BME280;30159;49.316;8.558;2023-10-08T02:08:56;101205.00;;;16.06;97.62
44457;BME280;30159;49.316;8.558;2023-10-08T02:11:24;101201.53;;;16.00;98.40
44457;BME280;30159;49.316;8.558;2023-10-08T02:13:54;101073.69;;;15.11;97.84
44457;BME280;30159;49.316;8.558;2023-10-08T02:16:21;101131.34;;;15.46;98.15
44457;BME280;30159;49.316;8.558;2023-10-08T02:18:48;101195.53;;;15.85;98.88
44457;BME280;30159;49.316;8.558;2023-10-08T02:21:15;101197.72;;;15.83;98.95
44457;BME280;30159;49.316;8.558;2023-10-08T02:23:43;101195.31;;;15.81;98.81
44457;BME280;30159;49.316;8.558;2023-10-08T02:26:09;101197.28;;;15.75;99.27
44457;BME280;30159;49.316;8.558;2023-10-08T02:28:36;101183.22;;;15.68;99.27
44457;BME280;30159;49.316;8.558;2023-10-08T02:31:05;101189.50;;;15.69;98.97
44457;BME280;30159;49.316;8.558;2023-10-08T02:33:34;101180.56;;;15.63;99.38
44457;BME280;30159;49.316;8.558;2023-10-08T02:36:02;101196.59;;;15.65;99.55
44457;BME280;30159;49.316;8.558;2023-10-08T02:38:30;101180.72;;;15.53;99.49
44457;BME280;30159;49.316;8.558;2023-10-08T02:41:03;101193.22;;;15.54;99.33
44457;BME280;30159;49.316;8.558;2023-10-08T02:43:31;101192.19;;;15.50;99.35
44457;BME280;30159;49.316;8.558;2023-10-08T02:45:59;101022.59;;;14.46;98.86
44457;BME280;30159;49.316;8.558;2023-10-08T02:48:27;101195.41;;;15.52;99.00
44457;BME280;30159;49.316;8.558;2023-10-08T02:50:55;101198.88;;;15.57;98.46
44457;BME280;30159;49.316;8.558;2023-10-08T02:53:32;101196.00;;;15.49;97.96
44457;BME280;30159;49.316;8.558;2023-10-08T02:55:59;101211.28;;;15.45;98.36
44457;BME280;30159;49.316;8.558;2023-10-08T02:58:26;101212.16;;;15.40;99.06
44457;BME280;30159;49.316;8.558;2023-10-08T03:00:53;101211.88;;;15.42;98.51
44457;BME280;30159;49.316;8.558;2023-10-08T03:03:20;101212.16;;;15.40;98.58
44457;BME280;30159;49.316;8.558;2023-10-08T03:05:52;101209.16;;;15.42;98.45
44457;BME280;30159;49.316;8.558;2023-10-08T03:08:22;101215.69;;;15.41;98.93
44457;BME280;30159;49.316;8.558;2023-10-08T03:10:50;101220.09;;;15.36;98.30
44457;BME280;30159;49.316;8.558;2023-10-08T03:13:21;101216.88;;;15.34;98.90
44457;BME280;30159;49.316;8.558;2023-10-08T03:15:48;101172.94;;;15.03;99.29
44457;BME280;30159;49.316;8.558;2023-10-08T03:18:33;101191.19;;;15.22;99.20
44457;BME280;30159;49.316;8.558;2023-10-08T03:21:03;101188.78;;;15.20;99.50
44457;BME280;30159;49.316;8.558;2023-10-08T03:23:30;101194.78;;;15.17;99.71
44457;BME280;30159;49.316;8.558;2023-10-08T03:26:01;101198.53;;;15.21;99.97
44457;BME280;30159;49.316;8.558;2023-10-08T03:28:36;101188.31;;;15.13;100.00
44457;BME280;30159;49.316;8.558;2023-10-08T03:31:03;101193.78;;;15.08;100.00
44457;BME280;30159;49.316;8.558;2023-10-08T03:33:31;101187.28;;;15.09;100.00
44457;BME280;30159;49.316;8.558;2023-10-08T03:36:00;101191.59;;;15.10;100.00
44457;BME280;30159;49.316;8.558;2023-10-08T03:38:36;101186.16;;;15.10;100.00
44457;BME280;30159;49.316;8.558;2023-10-08T03:41:11;101168.31;;;15.04;100.00
44457;BME280;30159;49.316;8.558;2023-10-08T03:43:42;101173.75;;;15.04;100.00
44457;BME280;30159;49.316;8.558;2023-10-08T03:46:18;101171.91;;;14.99;100.00
44457;BME280;30159;49.316;8.558;2023-10-08T03:48:46;101178.16;;;15.00;100.00
44457;BME280;30159;49.316;8.558;2023-10-08T03:51:16;101166.69;;;15.03;100.00
44457;BME280;30159;49.316;8.558;2023-10-08T03:53:47;101176.75;;;15.02;100.00
44457;BME280;30159;49.316;8.558;2023-10-08T03:56:41;101175.94;;;15.02;100.00
44457;BME280;30159;49.316;8.558;2023-10-08T03:59:11;101165.72;;;14.93;100.00
44457;BME280;30159;49.316;8.558;2023-10-08T04:01:40;101178.22;;;14.94;100.00
44457;BME280;30159;49.316;8.558;2023-10-08T04:04:06;101175.72;;;14.98;100.00
44457;BME280;30159;49.316;8.558;2023-10-08T04:06:37;101181.13;;;14.98;100.00
44457;BME280;30159;49.316;8.558;2023-10-08T04:09:06;101186.91;;;14.91;100.00
44457;BME280;30159;49.316;8.558;2023-10-08T04:11:42;101179.50;;;14.73;100.00
44457;BME280;30159;49.316;8.558;2023-10-08T04:14:29;101114.97;;;14.36;100.00
44457;BME280;30159;49.316;8.558;2023-10-08T04:16:56;101188.66;;;14.82;100.00
44457;BME280;30159;49.316;8.558;2023-10-08T04:19:24;101171.94;;;14.70;100.00
44457;BME280;30159;49.316;8.558;2023-10-08T04:21:53;101191.16;;;14.79;100.00
44457;BME280;30159;49.316;8.558;2023-10-08T04:24:23;101205.59;;;14.74;100.00
44457;BME280;30159;49.316;8.558;2023-10-08T04:26:55;101198.81;;;14.71;100.00
44457;BME280;30159;49.316;8.558;2023-10-08T04:29:25;101207.84;;;14.67;100.00
44457;BME280;30159;49.316;8.558;2023-10-08T04:31:57;101202.41;;;14.67;100.00
44457;BME280;30159;49.316;8.558;2023-10-08T04:34:33;101191.34;;;14.58;100.00
44457;BME280;30159;49.316;8.558;2023-10-08T04:37:00;101199.44;;;14.63;100.00
44457;BME280;30159;49.316;8.558;2023-10-08T04:39:30;101197.88;;;14.57;100.00
44457;BME280;30159;49.316;8.558;2023-10-08T04:42:00;101217.03;;;14.71;100.00
44457;BME280;30159;49.316;8.558;2023-10-08T04:44:31;101209.69;;;14.71;100.00
44457;BME280;30159;49.316;8.558;2023-10-08T04:46:58;101209.44;;;14.68;100.00
44457;BME280;30159;49.316;8.558;2023-10-08T04:49:30;101212.69;;;14.70;100.00
44457;BME280;30159;49.316;8.558;2023-10-08T04:52:00;101202.34;;;14.72;100.00
44457;BME280;30159;49.316;8.558;2023-10-08T04:54:31;101193.41;;;14.71;100.00
44457;BME280;30159;49.316;8.558;2023-10-08T04:56:59;101197.97;;;14.76;100.00
44457;BME280;30159;49.316;8.558;2023-10-08T04:59:27;101184.84;;;14.59;100.00
44457;BME280;30159;49.316;8.558;2023-10-08T05:01:59;101159.72;;;14.43;100.00
44457;BME280;30159;49.316;8.558;2023-10-08T05:04:45;101191.81;;;14.65;100.00
44457;BME280;30159;49.316;8.558;2023-10-08T05:07:22;101209.22;;;14.64;100.00
44457;BME280;30159;49.316;8.558;2023-10-08T05:10:05;101210.13;;;14.54;100.00
44457;BME280;30159;49.316;8.558;2023-10-08T05:12:57;101183.13;;;14.34;100.00
44457;BME280;30159;49.316;8.558;2023-10-08T05:15:40;101204.22;;;14.42;100.00
44457;BME280;30159;49.316;8.558;2023-10-08T05:18:15;101189.59;;;14.38;100.00
44457;BME280;30159;49.316;8.558;2023-10-08T05:20:49;101194.22;;;14.38;100.00
44457;BME280;30159;49.316;8.558;2023-10-08T05:23:41;101179.31;;;14.35;100.00
44457;BME280;30159;49.316;8.558;2023-10-08T05:26:37;101180.69;;;14.32;100.00
44457;BME280;30159;49.316;8.558;2023-10-08T05:29:10;101162.06;;;14.21;100.00
44457;BME280;30159;49.316;8.558;2023-10-08T05:32:04;101182.28;;;14.39;100.00
44457;BME280;30159;49.316;8.558;2023-10-08T05:34:48;101184.66;;;14.45;100.00
44457;BME280;30159;49.316;8.558;2023-10-08T05:37:38;101186.22;;;14.51;100.00
44457;BME280;30159;49.316;8.558;2023-10-08T05:40:08;101167.97;;;14.28;100.00
44457;BME280;30159;49.316;8.558;2023-10-08T05:42:48;101191.75;;;14.41;100.00
44457;BME280;30159;49.316;8.558;2023-10-08T05:45:25;101192.59;;;14.37;100.00
44457;BME280;30159;49.316;8.558;2023-10-08T05:47:56;101195.38;;;14.31;100.00
44457;BME280;30159;49.316;8.558;2023-10-08T05:50:40;101050.50;;;13.35;100.00
44457;BME280;30159;49.316;8.558;2023-10-08T05:53:20;101197.78;;;14.33;100.00
44457;BME280;30159;49.316;8.558;2023-10-08T05:56:06;101212.13;;;14.39;100.00
44457;BME280;30159;49.316;8.558;2023-10-08T05:58:54;101212.66;;;14.41;100.00
44457;BME280;30159;49.316;8.558;2023-10-08T06:01:40;101214.28;;;14.42;100.00
44457;BME280;30159;49.316;8.558;2023-10-08T06:04:07;101205.88;;;14.38;100.00
44457;BME280;30159;49.316;8.558;2023-10-08T06:07:08;101162.97;;;14.11;100.00
44457;BME280;30159;49.316;8.558;2023-10-08T06:09:38;101213.66;;;14.55;100.00
44457;BME280;30159;49.316;8.558;2023-10-08T06:12:06;101191.94;;;14.50;100.00
44457;BME280;30159;49.316;8.558;2023-10-08T06:14:39;101217.53;;;14.73;100.00
44457;BME280;30159;49.316;8.558;2023-10-08T06:17:23;101219.50;;;14.91;100.00
44457;BME280;30159;49.316;8.558;2023-10-08T06:20:22;101220.56;;;15.44;100.00
44457;BME280;30159;49.316;8.558;2023-10-08T06:22:52;101218.91;;;16.05;99.05
44457;BME280;30159;49.316;8.558;2023-10-08T06:25:26;101226.13;;;16.61;95.77
44457;BME280;30159;49.316;8.558;2023-10-08T06:27:53;101228.22;;;17.24;90.86
44457;BME280;30159;49.316;8.558;2023-10-08T06:30:25;101232.88;;;17.52;88.07
44457;BME280;30159;49.316;8.558;2023-10-08T06:32:55;101231.19;;;17.78;86.17
44457;BME280;30159;49.316;8.558;2023-10-08T06:35:22;101231.16;;;17.92;85.93
44457;BME280;30159;49.316;8.558;2023-10-08T06:37:53;101239.19;;;18.11;83.95
44457;BME280;30159;49.316;8.558;2023-10-08T06:40:25;101250.56;;;18.49;82.51
44457;BME280;30159;49.316;8.558;2023-10-08T06:43:10;101251.47;;;18.67;80.29
44457;BME280;30159;49.316;8.558;2023-10-08T06:45:51;101240.06;;;18.43;80.46
44457;BME280;30159;49.316;8.558;2023-10-08T06:48:19;101231.53;;;17.99;82.17
44457;BME280;30159;49.316;8.558;2023-10-08T06:50:48;101184.09;;;17.36;84.23
44457;BME280;30159;49.316;8.558;2023-10-08T06:53:15;101207.03;;;17.35;84.78
44457;BME280;30159;49.316;8.558;2023-10-08T06:55:43;101235.81;;;17.41;86.15
44457;BME280;30159;49.316;8.558;2023-10-08T06:58:13;101234.59;;;17.34;87.15
44457;BME280;30159;49.316;8.558;2023-10-08T07:00:40;101237.66;;;17.32;87.37
44457;BME280;30159;49.316;8.558;2023-10-08T07:03:14;101237.22;;;17.39;86.94
44457;BME280;30159;49.316;8.558;2023-10-08T07:05:42;101239.25;;;17.33;87.07
44457;BME280;30159;49.316;8.558;2023-10-08T07:08:10;101244.81;;;17.28;89.04
44457;BME280;30159;49.316;8.558;2023-10-08T07:10:39;101246.22;;;17.25;88.88
44457;BME280;30159;49.316;8.558;2023-10-08T07:13:07;101259.66;;;17.22;91.09
44457;BME280;30159;49.316;8.558;2023-10-08T07:15:35;101264.69;;;17.28;90.26
44457;BME280;30159;49.316;8.558;2023-10-08T07:18:05;101260.78;;;17.21;90.92
44457;BME280;30159;49.316;8.558;2023-10-08T07:20:44;101267.63;;;17.46;90.56
44457;BME280;30159;49.316;8.558;2023-10-08T07:23:11;101264.16;;;17.82;88.35
44457;BME280;30159;49.316;8.558;2023-10-08T07:25:54;101241.38;;;18.00;86.76
44457;BME280;30159;49.316;8.558;2023-10-08T07:28:25;101281.81;;;18.35;86.70
44457;BME280;30159;49.316;8.558;2023-10-08T07:30:52;101234.97;;;18.05;84.82
44457;BME280;30159;49.316;8.558;2023-10-08T07:33:19;101299.22;;;18.25;83.37
44457;BME280;30159;49.316;8.558;2023-10-08T07:35:52;101302.88;;;18.20;84.97
44457;BME280;30159;49.316;8.558;2023-10-08T07:38:25;101295.94;;;18.37;85.49
44457;BME280;30159;49.316;8.558;2023-10-08T07:40:55;101311.25;;;18.60;84.20
44457;BME280;30159;49.316;8.558;2023-10-08T07:43:22;101307.06;;;18.85;83.20
44457;BME280;30159;49.316;8.558;2023-10-08T07:45:48;101309.22;;;19.28;81.34
44457;BME280;30159;49.316;8.558;2023-10-08T07:48:15;101308.50;;;19.54;79.14
44457;BME280;30159;49.316;8.558;2023-10-08T07:50:43;101317.13;;;19.87;77.80
44457;BME280;30159;49.316;8.558;2023-10-08T07:53:12;101308.66;;;19.57;76.89
44457;BME280;30159;49.316;8.558;2023-10-08T07:55:47;101322.94;;;19.46;78.20
44457;BME280;30159;49.316;8.558;2023-10-08T07:58:15;101307.94;;;19.83;79.51
44457;BME280;30159;49.316;8.558;2023-10-08T08:00:42;101291.94;;;19.59;77.51
44457;BME280;30159;49.316;8.558;2023-10-08T08:03:18;101312.31;;;20.36;76.96
44457;BME280;30159;49.316;8.558;2023-10-08T08:05:45;101308.78;;;20.79;74.68
44457;BME280;30159;49.316;8.558;2023-10-08T08:08:14;101309.50;;;21.06;73.58
44457;BME280;30159;49.316;8.558;2023-10-08T08:10:44;101309.28;;;21.20;73.56
44457;BME280;30159;49.316;8.558;2023-10-08T08:13:11;101316.31;;;21.38;73.53
44457;BME280;30159;49.316;8.558;2023-10-08T08:15:46;101312.47;;;21.31;73.45
44457;BME280;30159;49.316;8.558;2023-10-08T08:18:16;101303.50;;;21.51;72.63
44457;BME280;30159;49.316;8.558;2023-10-08T08:20:48;101311.84;;;21.16;73.99
44457;BME280;30159;49.316;8.558;2023-10-08T08:23:16;101313.59;;;21.30;74.32
44457;BME280;30159;49.316;8.558;2023-10-08T08:25:43;101317.50;;;21.58;75.33
44457;BME280;30159;49.316;8.558;2023-10-08T08:28:21;101315.56;;;21.88;72.90
44457;BME280;30159;49.316;8.558;2023-10-08T08:30:50;101313.34;;;21.82;72.38
44457;BME280;30159;49.316;8.558;2023-10-08T08:33:17;101329.84;;;21.82;72.38
44457;BME280;30159;49.316;8.558;2023-10-08T08:35:57;101333.84;;;21.84;72.74
44457;BME280;30159;49.316;8.558;2023-10-08T08:38:26;101337.19;;;21.90;73.28
44457;BME280;30159;49.316;8.558;2023-10-08T08:41:02;101335.88;;;21.96;73.06
44457;BME280;30159;49.316;8.558;2023-10-08T08:43:34;101296.28;;;21.67;73.14
44457;BME280;30159;49.316;8.558;2023-10-08T08:46:02;101327.53;;;21.84;73.09
44457;BME280;30159;49.316;8.558;2023-10-08T08:48:32;101336.25;;;21.86;73.53
44457;BME280;30159;49.316;8.558;2023-10-08T08:51:00;101334.72;;;21.97;72.42
44457;BME280;30159;49.316;8.558;2023-10-08T08:53:28;101329.66;;;22.08;72.22
44457;BME280;30159;49.316;8.558;2023-10-08T08:55:55;101333.66;;;21.89;72.79
44457;BME280;30159;49.316;8.558;2023-10-08T08:58:23;101334.16;;;22.13;72.52
44457;BME280;30159;49.316;8.558;2023-10-08T09:00:52;101201.44;;;21.49;72.06
44457;BME280;30159;49.316;8.558;2023-10-08T09:03:21;101334.50;;;22.32;72.84
44457;BME280;30159;49.316;8.558;2023-10-08T09:05:55;101333.28;;;22.42;71.47
44457;BME280;30159;49.316;8.558;2023-10-08T09:08:22;101317.50;;;22.09;72.29
44457;BME280;30159;49.316;8.558;2023-10-08T09:10:51;101333.38;;;22.33;71.97
44457;BME280;30159;49.316;8.558;2023-10-08T09:13:19;101332.63;;;22.45;71.88
44457;BME280;30159;49.316;8.558;2023-10-08T09:15:48;101333.47;;;22.16;72.72
44457;BME280;30159;49.316;8.558;2023-10-08T09:18:14;101321.47;;;21.99;72.96
44457;BME280;30159;49.316;8.558;2023-10-08T09:20:41;101333.69;;;22.10;72.88
44457;BME280;30159;49.316;8.558;2023-10-08T09:23:10;101348.78;;;21.96;72.81
44457;BME280;30159;49.316;8.558;2023-10-08T09:25:38;101347.88;;;21.92;73.59
44457;BME280;30159;49.316;8.558;2023-10-08T09:28:07;101349.16;;;21.94;74.11
44457;BME280;30159;49.316;8.558;2023-10-08T09:30:34;101321.41;;;21.87;73.95
44457;BME280;30159;49.316;8.558;2023-10-08T09:33:04;101341.28;;;21.84;73.54
44457;BME280;30159;49.316;8.558;2023-10-08T09:35:31;101348.78;;;21.96;74.36
44457;BME280;30159;49.316;8.558;2023-10-08T09:37:59;101351.69;;;22.29;74.08
44457;BME280;30159;49.316;8.558;2023-10-08T09:40:27;101340.88;;;22.45;72.81
44457;BME280;30159;49.316;8.558;2023-10-08T09:42:54;101323.69;;;22.48;72.26
44457;BME280;30159;49.316;8.558;2023-10-08T09:45:22;101341.75;;;22.70;71.85
44457;BME280;30159;49.316;8.558;2023-10-08T09:47:52;101343.78;;;22.61;71.86
44457;BME280;30159;49.316;8.558;2023-10-08T09:50:26;101316.03;;;22.54;72.04
44457;BME280;30159;49.316;8.558;2023-10-08T09:53:00;101325.13;;;22.66;72.48
44457;BME280;30159;49.316;8.558;2023-10-08T09:55:29;101315.88;;;22.71;72.51
44457;BME280;30159;49.316;8.558;2023-10-08T09:57:55;101321.69;;;22.69;73.35
44457;BME280;30159;49.316;8.558;2023-10-08T10:00:24;101328.16;;;22.86;72.56
44457;BME280;30159;49.316;8.558;2023-10-08T10:02:58;101332.19;;;22.88;72.57
44457;BME280;30159;49.316;8.558;2023-10-08T10:05:29;101349.09;;;22.99;72.25
44457;BME280;30159;49.316;8.558;2023-10-08T10:07:56;101341.91;;;22.73;72.08
44457;BME280;30159;49.316;8.558;2023-10-08T10:10:26;101332.44;;;22.96;72.83
44457;BME280;30159;49.316;8.558;2023-10-08T10:12:53;101338.03;;;23.32;72.36
44457;BME280;30159;49.316;8.558;2023-10-08T10:15:26;101333.56;;;23.77;69.76
44457;BME280;30159;49.316;8.558;2023-10-08T10:17:58;101320.69;;;23.93;69.29
44457;BME280;30159;49.316;8.558;2023-10-08T10:20:25;101324.53;;;24.17;68.40
44457;BME280;30159;49.316;8.558;2023-10-08T10:22:52;101313.50;;;24.17;68.68
44457;BME280;30159;49.316;8.558;2023-10-08T10:25:34;101264.75;;;23.93;68.33
44457;BME280;30159;49.316;8.558;2023-10-08T10:28:29;101309.03;;;24.40;67.45
44457;BME280;30159;49.316;8.558;2023-10-08T10:30:57;101315.22;;;24.50;68.38
44457;BME280;30159;49.316;8.558;2023-10-08T10:33:31;101326.44;;;24.69;67.09
44457;BME280;30159;49.316;8.558;2023-10-08T10:36:00;101304.88;;;24.75;66.75
44457;BME280;30159;49.316;8.558;2023-10-08T10:38:27;101327.84;;;24.79;66.10
44457;BME280;30159;49.316;8.558;2023-10-08T10:40:55;101322.91;;;24.56;68.15
44457;BME280;30159;49.316;8.558;2023-10-08T10:43:24;101289.84;;;24.44;66.70
44457;BME280;30159;49.316;8.558;2023-10-08T10:46:00;101297.28;;;24.28;67.56
44457;BME280;30159;49.316;8.558;2023-10-08T10:48:45;101309.03;;;24.40;67.21
44457;BME280;30159;49.316;8.558;2023-10-08T10:51:22;101312.69;;;24.16;68.01
44457;BME280;30159;49.316;8.558;2023-10-08T10:53:52;101290.56;;;24.13;67.84
44457;BME280;30159;49.316;8.558;2023-10-08T10:56:28;101305.38;;;24.08;68.38
44457;BME280;30159;49.316;8.558;2023-10-08T10:58:58;101298.91;;;24.16;67.91
44457;BME280;30159;49.316;8.558;2023-10-08T11:01:27;101295.25;;;24.12;68.14
44457;BME280;30159;49.316;8.558;2023-10-08T11:03:56;101292.25;;;24.17;67.68
44457;BME280;30159;49.316;8.558;2023-10-08T11:06:23;101308.16;;;23.96;67.84
44457;BME280;30159;49.316;8.558;2023-10-08T11:08:50;101296.03;;;23.60;68.21
44457;BME280;30159;49.316;8.558;2023-10-08T11:11:18;101297.38;;;23.91;67.87
44457;BME280;30159;49.316;8.558;2023-10-08T11:13:44;101299.47;;;23.94;67.97
44457;BME280;30159;49.316;8.558;2023-10-08T11:16:17;101299.75;;;24.05;68.05
44457;BME280;30159;49.316;8.558;2023-10-08T11:18:50;101253.22;;;23.63;68.50
44457;BME280;30159;49.316;8.558;2023-10-08T11:21:23;101270.31;;;23.68;69.18
44457;BME280;30159;49.316;8.558;2023-10-08T11:23:51;101286.81;;;23.93;68.44
44457;BME280;30159;49.316;8.558;2023-10-08T11:26:35;101283.19;;;23.64;68.70
44457;BME280;30159;49.316;8.558;2023-10-08T11:29:05;101277.44;;;23.57;68.95
44457;BME280;30159;49.316;8.558;2023-10-08T11:31:40;101272.63;;;23.42;70.00
44457;BME280;30159;49.316;8.558;2023-10-08T11:34:11;101270.22;;;23.40;70.26
44457;BME280;30159;49.316;8.558;2023-10-08T11:36:38;101266.19;;;23.38;69.82
44457;BME280;30159;49.316;8.558;2023-10-08T11:39:18;101265.75;;;23.23;70.05
44457;BME280;30159;49.316;8.558;2023-10-08T11:41:55;101267.94;;;23.18;69.46
44457;BME280;30159;49.316;8.558;2023-10-08T11:44:22;101268.28;;;23.16;69.76
44457;BME280;30159;49.316;8.558;2023-10-08T11:46:49;101250.50;;;23.01;70.41
44457;BME280;30159;49.316;8.558;2023-10-08T11:49:18;101246.22;;;22.91;70.94
44457;BME280;30159;49.316;8.558;2023-10-08T11:51:51;101253.56;;;22.87;71.47
44457;BME280;30159;49.316;8.558;2023-10-08T11:54:18;101265.75;;;23.11;70.99
44457;BME280;30159;49.316;8.558;2023-10-08T11:56:45;101271.16;;;23.20;70.67
44457;BME280;30159;49.316;8.558;2023-10-08T11:59:12;101287.06;;;23.26;70.47
44457;BME280;30159;49.316;8.558;2023-10-08T12:01:39;101287.91;;;23.27;69.97
44457;BME280;30159;49.316;8.558;2023-10-08T12:04:08;101286.97;;;23.23;70.59
44457;BME280;30159;49.316;8.558;2023-10-08T12:06:39;101293.03;;;23.28;69.79
44457;BME280;30159;49.316;8.558;2023-10-08T12:09:12;101296.84;;;23.36;70.12
44457;BME280;30159;49.316;8.558;2023-10-08T12:11:39;101294.19;;;23.40;69.97
44457;BME280;30159;49.316;8.558;2023-10-08T12:14:06;101272.97;;;23.03;69.77
44457;BME280;30159;49.316;8.558;2023-10-08T12:16:33;101291.78;;;23.26;70.43
44457;BME280;30159;49.316;8.558;2023-10-08T12:19:02;101288.59;;;23.36;70.22
44457;BME280;30159;49.316;8.558;2023-10-08T12:21:42;101277.22;;;23.13;70.10
44457;BME280;30159;49.316;8.558;2023-10-08T12:24:11;101273.09;;;23.07;70.58
44457;BME280;30159;49.316;8.558;2023-10-08T12:26:38;101271.81;;;23.04;70.06
44457;BME280;30159;49.316;8.558;2023-10-08T12:29:10;101275.91;;;22.98;70.43
44457;BME280;30159;49.316;8.558;2023-10-08T12:31:37;101266.56;;;22.99;70.87
44457;BME280;30159;49.316;8.558;2023-10-08T12:34:04;101251.03;;;22.94;70.87
44457;BME280;30159;49.316;8.558;2023-10-08T12:36:34;101258.06;;;23.17;70.27
44457;BME280;30159;49.316;8.558;2023-10-08T12:39:03;101256.47;;;23.28;69.84
44457;BME280;30159;49.316;8.558;2023-10-08T12:41:35;101266.44;;;23.32;70.57
44457;BME280;30159;49.316;8.558;2023-10-08T12:44:04;101263.91;;;23.40;69.93
44457;BME280;30159;49.316;8.558;2023-10-08T12:46:33;101257.72;;;23.55;70.00
44457;BME280;30159;49.316;8.558;2023-10-08T12:49:00;101265.41;;;23.62;68.69
44457;BME280;30159;49.316;8.558;2023-10-08T12:51:28;101259.31;;;23.68;68.68
44457;BME280;30159;49.316;8.558;2023-10-08T12:53:58;101262.19;;;23.47;69.06
44457;BME280;30159;49.316;8.558;2023-10-08T12:56:30;101199.13;;;23.05;69.52
44457;BME280;30159;49.316;8.558;2023-10-08T12:59:04;101255.19;;;23.50;69.28
44457;BME280;30159;49.316;8.558;2023-10-08T13:01:32;101241.22;;;23.43;68.88
44457;BME280;30159;49.316;8.558;2023-10-08T13:04:01;101255.19;;;23.50;68.99
44457;BME280;30159;49.316;8.558;2023-10-08T13:06:33;101249.66;;;23.62;69.07
44457;BME280;30159;49.316;8.558;2023-10-08T13:09:03;101246.09;;;23.74;68.88